sensor_id;sensor_type;location;lat;lon;timestamp;temperature;humidity
20091;DHT22;10205;49.678;6.560;2022-08-19T00:01:17;27.80;44.00
20091;DHT22;10205;49.678;6.560;2022-08-19T00:03:44;27.70;43.90
20091;DHT22;10205;49.678;6.560;2022-08-19T00:06:11;27.70;43.90
20091;DHT22;10205;49.678;6.560;2022-08-19T00:08:39;27.70;44.10
20091;DHT22;10205;49.678;6.560;2022-08-19T00:11:06;27.60;44.40
20091;DHT22;10205;49.678;6.560;2022-08-19T00:13:34;27.60;44.30
20091;DHT22;10205;49.678;6.560;2022-08-19T00:16:03;27.50;44.20
20091;DHT22;10205;49.678;6.560;2022-08-19T00:18:31;27.50;44.40
20091;DHT22;10205;49.678;6.560;2022-08-19T00:20:58;27.50;44.50
20091;DHT22;10205;49.678;6.560;2022-08-19T00:23:26;27.50;45.20
20091;DHT22;10205;49.678;6.560;2022-08-19T00:25:53;27.40;44.70
20091;DHT22;10205;49.678;6.560;2022-08-19T00:28:21;27.30;44.60
20091;DHT22;10205;49.678;6.560;2022-08-19T00:30:48;27.30;44.90
20091;DHT22;10205;49.678;6.560;2022-08-19T00:33:19;27.30;44.90
20091;DHT22;10205;49.678;6.560;2022-08-19T00:35:46;27.30;44.90
20091;DHT22;10205;49.678;6.560;2022-08-19T00:38:14;27.20;44.90
20091;DHT22;10205;49.678;6.560;2022-08-19T00:40:43;27.20;45.10
20091;DHT22;10205;49.678;6.560;2022-08-19T00:43:12;27.10;45.30
20091;DHT22;10205;49.678;6.560;2022-08-19T00:45:44;27.10;46.10
20091;DHT22;10205;49.678;6.560;2022-08-19T00:48:13;27.10;45.40
20091;DHT22;10205;49.678;6.560;2022-08-19T00:50:43;27.10;45.40
20091;DHT22;10205;49.678;6.560;2022-08-19T00:53:13;27.00;45.30
20091;DHT22;10205;49.678;6.560;2022-08-19T00:55:45;27.00;45.40
20091;DHT22;10205;49.678;6.560;2022-08-19T00:58:17;27.00;45.60
20091;DHT22;10205;49.678;6.560;2022-08-19T01:00:50;26.90;45.50
20091;DHT22;10205;49.678;6.560;2022-08-19T01:03:19;26.90;45.50
20091;DHT22;10205;49.678;6.560;2022-08-19T01:05:52;26.90;45.60
20091;DHT22;10205;49.678;6.560;2022-08-19T01:08:21;26.80;45.60
20091;DHT22;10205;49.678;6.560;2022-08-19T01:10:52;26.80;45.60
20091;DHT22;10205;49.678;6.560;2022-08-19T01:13:24;26.80;45.60
20091;DHT22;10205;49.678;6.560;2022-08-19T01:15:56;26.80;45.60
20091;DHT22;10205;49.678;6.560;2022-08-19T01:18:26;26.70;45.60
20091;DHT22;10205;49.678;6.560;2022-08-19T01:20:59;26.70;45.70
20091;DHT22;10205;49.678;6.560;2022-08-19T01:23:30;26.70;45.80
20091;DHT22;10205;49.678;6.560;2022-08-19T01:26:10;26.70;45.70
20091;DHT22;10205;49.678;6.560;2022-08-19T01:28:40;26.70;45.70
20091;DHT22;10205;49.678;6.560;2022-08-19T01:31:12;26.70;46.40
20091;DHT22;10205;49.678;6.560;2022-08-19T01:33:42;26.60;46.00
20091;DHT22;10205;49.678;6.560;2022-08-19T01:36:19;26.60;46.20
20091;DHT22;10205;49.678;6.560;2022-08-19T01:38:52;26.50;46.00
20091;DHT22;10205;49.678;6.560;2022-08-19T01:41:19;26.50;46.00
20091;DHT22;10205;49.678;6.560;2022-08-19T01:43:49;26.50;46.00
20091;DHT22;10205;49.678;6.560;2022-08-19T01:46:19;26.50;46.00
20091;DHT22;10205;49.678;6.560;2022-08-19T01:48:50;26.40;46.10
20091;DHT22;10205;49.678;6.560;2022-08-19T01:51:17;26.40;46.10
20091;DHT22;10205;49.678;6.560;2022-08-19T01:53:47;26.40;46.30
20091;DHT22;10205;49.678;6.560;2022-08-19T01:56:17;26.40;46.50
20091;DHT22;10205;49.678;6.560;2022-08-19T01:58:49;26.30;46.30
20091;DHT22;10205;49.678;6.560;2022-08-19T02:01:19;26.30;46.50
20091;DHT22;10205;49.678;6.560;2022-08-19T02:03:46;26.30;46.30
20091;DHT22;10205;49.678;6.560;2022-08-19T02:06:15;26.30;46.30
20091;DHT22;10205;49.678;6.560;2022-08-19T02:08:42;26.20;46.30
20091;DHT22;10205;49.678;6.560;2022-08-19T02:11:20;26.20;46.30
20091;DHT22;10205;49.678;6.560;2022-08-19T02:13:49;26.20;46.40
20091;DHT22;10205;49.678;6.560;2022-08-19T02:16:17;26.10;46.30
20091;DHT22;10205;49.678;6.560;2022-08-19T02:18:46;26.10;46.30
20091;DHT22;10205;49.678;6.560;2022-08-19T02:21:15;26.10;46.60
20091;DHT22;10205;49.678;6.560;2022-08-19T02:23:42;26.10;46.40
20091;DHT22;10205;49.678;6.560;2022-08-19T02:26:10;26.00;46.40
20091;DHT22;10205;49.678;6.560;2022-08-19T02:28:39;26.00;46.40
20091;DHT22;10205;49.678;6.560;2022-08-19T02:31:09;26.00;46.50
20091;DHT22;10205;49.678;6.560;2022-08-19T02:33:37;25.90;46.50
20091;DHT22;10205;49.678;6.560;2022-08-19T02:36:06;25.90;47.20
20091;DHT22;10205;49.678;6.560;2022-08-19T02:38:35;25.90;47.00
20091;DHT22;10205;49.678;6.560;2022-08-19T02:41:05;25.80;46.90
20091;DHT22;10205;49.678;6.560;2022-08-19T02:43:35;25.80;47.50
20091;DHT22;10205;49.678;6.560;2022-08-19T02:46:13;25.80;47.10
20091;DHT22;10205;49.678;6.560;2022-08-19T02:48:43;25.70;47.10
20091;DHT22;10205;49.678;6.560;2022-08-19T02:51:16;25.70;47.10
20091;DHT22;10205;49.678;6.560;2022-08-19T02:53:46;25.60;47.10
20091;DHT22;10205;49.678;6.560;2022-08-19T02:56:13;25.60;47.10
20091;DHT22;10205;49.678;6.560;2022-08-19T02:58:41;25.60;48.00
20091;DHT22;10205;49.678;6.560;2022-08-19T03:01:18;25.60;47.50
20091;DHT22;10205;49.678;6.560;2022-08-19T03:03:47;25.50;48.20
20091;DHT22;10205;49.678;6.560;2022-08-19T03:06:15;25.60;48.00
20091;DHT22;10205;49.678;6.560;2022-08-19T03:08:45;25.50;47.60
20091;DHT22;10205;49.678;6.560;2022-08-19T03:11:14;25.40;47.60
20091;DHT22;10205;49.678;6.560;2022-08-19T03:13:42;25.50;48.10
20091;DHT22;10205;49.678;6.560;2022-08-19T03:16:11;25.40;47.80
20091;DHT22;10205;49.678;6.560;2022-08-19T03:18:39;25.40;47.70
20091;DHT22;10205;49.678;6.560;2022-08-19T03:21:07;25.30;48.10
20091;DHT22;10205;49.678;6.560;2022-08-19T03:23:35;25.30;47.80
20091;DHT22;10205;49.678;6.560;2022-08-19T03:26:04;25.20;47.80
20091;DHT22;10205;49.678;6.560;2022-08-19T03:28:33;25.20;47.80
20091;DHT22;10205;49.678;6.560;2022-08-19T03:31:03;25.20;47.80
20091;DHT22;10205;49.678;6.560;2022-08-19T03:33:34;25.10;47.90
20091;DHT22;10205;49.678;6.560;2022-08-19T03:36:05;25.10;48.00
20091;DHT22;10205;49.678;6.560;2022-08-19T03:38:35;25.10;47.90
20091;DHT22;10205;49.678;6.560;2022-08-19T03:41:05;25.10;47.80
20091;DHT22;10205;49.678;6.560;2022-08-19T03:43:35;25.10;47.80
20091;DHT22;10205;49.678;6.560;2022-08-19T03:46:06;25.10;47.80
20091;DHT22;10205;49.678;6.560;2022-08-19T03:48:39;25.00;48.20
20091;DHT22;10205;49.678;6.560;2022-08-19T03:51:14;25.00;48.40
20091;DHT22;10205;49.678;6.560;2022-08-19T03:53:43;25.00;48.00
20091;DHT22;10205;49.678;6.560;2022-08-19T03:56:10;25.00;48.00
20091;DHT22;10205;49.678;6.560;2022-08-19T03:58:39;24.90;48.00
20091;DHT22;10205;49.678;6.560;2022-08-19T04:01:07;24.90;47.90
20091;DHT22;10205;49.678;6.560;2022-08-19T04:03:37;24.90;48.00
20091;DHT22;10205;49.678;6.560;2022-08-19T04:06:12;24.90;48.00
20091;DHT22;10205;49.678;6.560;2022-08-19T04:08:41;24.90;48.10
20091;DHT22;10205;49.678;6.560;2022-08-19T04:11:11;24.90;48.10
20091;DHT22;10205;49.678;6.560;2022-08-19T04:13:40;24.80;48.00
20091;DHT22;10205;49.678;6.560;2022-08-19T04:16:09;24.80;48.00
20091;DHT22;10205;49.678;6.560;2022-08-19T04:18:39;24.80;48.00
20091;DHT22;10205;49.678;6.560;2022-08-19T04:21:08;24.80;48.10
20091;DHT22;10205;49.678;6.560;2022-08-19T04:23:42;24.80;48.00
20091;DHT22;10205;49.678;6.560;2022-08-19T04:26:12;24.80;48.30
20091;DHT22;10205;49.678;6.560;2022-08-19T04:28:41;24.70;48.20
20091;DHT22;10205;49.678;6.560;2022-08-19T04:31:13;24.70;48.90
20091;DHT22;10205;49.678;6.560;2022-08-19T04:33:44;24.70;48.90
20091;DHT22;10205;49.678;6.560;2022-08-19T04:36:16;24.60;48.50
20091;DHT22;10205;49.678;6.560;2022-08-19T04:38:46;24.60;48.50
20091;DHT22;10205;49.678;6.560;2022-08-19T04:41:13;24.60;48.80
20091;DHT22;10205;49.678;6.560;2022-08-19T04:43:59;24.50;48.60
20091;DHT22;10205;49.678;6.560;2022-08-19T04:46:28;24.50;48.50
20091;DHT22;10205;49.678;6.560;2022-08-19T04:48:59;24.50;49.10
20091;DHT22;10205;49.678;6.560;2022-08-19T04:51:28;24.50;48.70
20091;DHT22;10205;49.678;6.560;2022-08-19T04:53:56;24.40;48.70
20091;DHT22;10205;49.678;6.560;2022-08-19T04:56:25;24.40;49.00
20091;DHT22;10205;49.678;6.560;2022-08-19T04:58:54;24.40;49.40
20091;DHT22;10205;49.678;6.560;2022-08-19T05:01:25;24.40;49.30
20091;DHT22;10205;49.678;6.560;2022-08-19T05:03:55;24.40;49.30
20091;DHT22;10205;49.678;6.560;2022-08-19T05:06:24;24.30;48.90
20091;DHT22;10205;49.678;6.560;2022-08-19T05:08:51;24.30;48.90
20091;DHT22;10205;49.678;6.560;2022-08-19T05:11:22;24.30;48.90
20091;DHT22;10205;49.678;6.560;2022-08-19T05:13:51;24.30;48.90
20091;DHT22;10205;49.678;6.560;2022-08-19T05:16:20;24.30;49.00
20091;DHT22;10205;49.678;6.560;2022-08-19T05:18:49;24.20;49.70
20091;DHT22;10205;49.678;6.560;2022-08-19T05:21:36;24.20;50.20
20091;DHT22;10205;49.678;6.560;2022-08-19T05:24:22;24.20;50.30
20091;DHT22;10205;49.678;6.560;2022-08-19T05:26:51;24.20;49.70
20091;DHT22;10205;49.678;6.560;2022-08-19T05:29:23;24.10;49.50
20091;DHT22;10205;49.678;6.560;2022-08-19T05:31:53;24.10;50.60
20091;DHT22;10205;49.678;6.560;2022-08-19T05:34:22;24.00;49.70
20091;DHT22;10205;49.678;6.560;2022-08-19T05:36:54;24.00;49.70
20091;DHT22;10205;49.678;6.560;2022-08-19T05:39:24;24.00;49.70
20091;DHT22;10205;49.678;6.560;2022-08-19T05:41:56;24.00;49.70
20091;DHT22;10205;49.678;6.560;2022-08-19T05:44:27;24.00;49.70
20091;DHT22;10205;49.678;6.560;2022-08-19T05:46:55;24.00;49.90
20091;DHT22;10205;49.678;6.560;2022-08-19T05:49:23;24.00;49.80
20091;DHT22;10205;49.678;6.560;2022-08-19T05:51:53;24.00;49.80
20091;DHT22;10205;49.678;6.560;2022-08-19T05:54:21;24.00;49.80
20091;DHT22;10205;49.678;6.560;2022-08-19T05:56:49;24.00;50.40
20091;DHT22;10205;49.678;6.560;2022-08-19T05:59:18;24.00;49.80
20091;DHT22;10205;49.678;6.560;2022-08-19T06:01:48;24.00;50.10
20091;DHT22;10205;49.678;6.560;2022-08-19T06:04:18;24.00;50.00
20091;DHT22;10205;49.678;6.560;2022-08-19T06:06:46;24.00;49.90
20091;DHT22;10205;49.678;6.560;2022-08-19T06:09:15;24.00;51.10
20091;DHT22;10205;49.678;6.560;2022-08-19T06:11:44;24.00;51.10
20091;DHT22;10205;49.678;6.560;2022-08-19T06:14:14;24.00;50.20
20091;DHT22;10205;49.678;6.560;2022-08-19T06:16:46;23.90;50.20
20091;DHT22;10205;49.678;6.560;2022-08-19T06:19:15;24.00;51.30
20091;DHT22;10205;49.678;6.560;2022-08-19T06:21:45;24.00;50.60
20091;DHT22;10205;49.678;6.560;2022-08-19T06:24:17;23.90;51.10
20091;DHT22;10205;49.678;6.560;2022-08-19T06:26:48;24.00;50.70
20091;DHT22;10205;49.678;6.560;2022-08-19T06:29:19;23.90;50.40
20091;DHT22;10205;49.678;6.560;2022-08-19T06:31:50;23.90;50.60
20091;DHT22;10205;49.678;6.560;2022-08-19T06:34:19;23.90;51.30
20091;DHT22;10205;49.678;6.560;2022-08-19T06:36:48;23.90;51.40
20091;DHT22;10205;49.678;6.560;2022-08-19T06:39:21;23.90;50.90
20091;DHT22;10205;49.678;6.560;2022-08-19T06:41:52;23.90;52.00
20091;DHT22;10205;49.678;6.560;2022-08-19T06:44:22;24.00;51.30
20091;DHT22;10205;49.678;6.560;2022-08-19T06:46:52;23.90;51.30
20091;DHT22;10205;49.678;6.560;2022-08-19T06:49:19;23.90;51.40
20091;DHT22;10205;49.678;6.560;2022-08-19T06:51:48;24.00;51.60
20091;DHT22;10205;49.678;6.560;2022-08-19T06:54:18;24.00;51.60
20091;DHT22;10205;49.678;6.560;2022-08-19T06:56:46;24.00;51.30
20091;DHT22;10205;49.678;6.560;2022-08-19T06:59:15;24.00;52.40
20091;DHT22;10205;49.678;6.560;2022-08-19T07:01:46;24.00;53.20
20091;DHT22;10205;49.678;6.560;2022-08-19T07:04:17;24.00;52.40
20091;DHT22;10205;49.678;6.560;2022-08-19T07:06:46;24.00;52.30
20091;DHT22;10205;49.678;6.560;2022-08-19T07:09:15;24.10;52.00
20091;DHT22;10205;49.678;6.560;2022-08-19T07:11:47;24.10;52.90
20091;DHT22;10205;49.678;6.560;2022-08-19T07:14:17;24.10;52.20
20091;DHT22;10205;49.678;6.560;2022-08-19T07:16:48;24.10;52.30
20091;DHT22;10205;49.678;6.560;2022-08-19T07:19:17;24.10;52.50
20091;DHT22;10205;49.678;6.560;2022-08-19T07:21:47;24.20;52.20
20091;DHT22;10205;49.678;6.560;2022-08-19T07:24:20;24.20;52.20
20091;DHT22;10205;49.678;6.560;2022-08-19T07:26:50;24.20;53.20
20091;DHT22;10205;49.678;6.560;2022-08-19T07:29:20;24.20;52.60
20091;DHT22;10205;49.678;6.560;2022-08-19T07:31:49;24.20;53.00
20091;DHT22;10205;49.678;6.560;2022-08-19T07:34:17;24.20;52.80
20091;DHT22;10205;49.678;6.560;2022-08-19T07:36:45;24.30;52.70
20091;DHT22;10205;49.678;6.560;2022-08-19T07:39:15;24.40;52.90
20091;DHT22;10205;49.678;6.560;2022-08-19T07:41:47;24.40;53.30
20091;DHT22;10205;49.678;6.560;2022-08-19T07:44:16;24.40;53.30
20091;DHT22;10205;49.678;6.560;2022-08-19T07:46:46;24.50;53.20
20091;DHT22;10205;49.678;6.560;2022-08-19T07:49:16;24.50;53.20
20091;DHT22;10205;49.678;6.560;2022-08-19T07:51:45;24.60;53.10
20091;DHT22;10205;49.678;6.560;2022-08-19T07:54:12;24.60;52.70
20091;DHT22;10205;49.678;6.560;2022-08-19T07:56:40;24.70;52.40
20091;DHT22;10205;49.678;6.560;2022-08-19T07:59:09;24.70;52.80
20091;DHT22;10205;49.678;6.560;2022-08-19T08:01:37;24.70;52.50
20091;DHT22;10205;49.678;6.560;2022-08-19T08:04:07;24.80;52.20
20091;DHT22;10205;49.678;6.560;2022-08-19T08:07:04;24.80;52.50
20091;DHT22;10205;49.678;6.560;2022-08-19T08:09:50;24.90;52.70
20091;DHT22;10205;49.678;6.560;2022-08-19T08:12:23;24.90;52.80
20091;DHT22;10205;49.678;6.560;2022-08-19T08:14:58;25.00;52.60
20091;DHT22;10205;49.678;6.560;2022-08-19T08:17:28;25.00;52.00
20091;DHT22;10205;49.678;6.560;2022-08-19T08:19:57;25.10;52.60
20091;DHT22;10205;49.678;6.560;2022-08-19T08:22:25;25.20;52.90
20091;DHT22;10205;49.678;6.560;2022-08-19T08:25:12;25.20;52.90
20091;DHT22;10205;49.678;6.560;2022-08-19T08:27:43;25.30;53.10
20091;DHT22;10205;49.678;6.560;2022-08-19T08:30:14;25.40;53.00
20091;DHT22;10205;49.678;6.560;2022-08-19T08:32:43;25.40;52.20
20091;DHT22;10205;49.678;6.560;2022-08-19T08:35:12;25.50;52.00
20091;DHT22;10205;49.678;6.560;2022-08-19T08:37:42;25.50;51.70
20091;DHT22;10205;49.678;6.560;2022-08-19T08:40:17;25.60;51.70
20091;DHT22;10205;49.678;6.560;2022-08-19T08:42:54;25.60;51.70
20091;DHT22;10205;49.678;6.560;2022-08-19T08:45:28;25.60;51.90
20091;DHT22;10205;49.678;6.560;2022-08-19T08:48:02;25.70;51.70
20091;DHT22;10205;49.678;6.560;2022-08-19T08:50:41;25.80;52.20
20091;DHT22;10205;49.678;6.560;2022-08-19T08:53:13;25.90;51.90
20091;DHT22;10205;49.678;6.560;2022-08-19T08:55:43;25.90;51.50
20091;DHT22;10205;49.678;6.560;2022-08-19T08:58:14;26.00;51.10
20091;DHT22;10205;49.678;6.560;2022-08-19T09:00:49;26.10;51.30
20091;DHT22;10205;49.678;6.560;2022-08-19T09:03:19;26.20;50.80
20091;DHT22;10205;49.678;6.560;2022-08-19T09:05:56;26.30;50.50
20091;DHT22;10205;49.678;6.560;2022-08-19T09:08:37;26.30;50.50
20091;DHT22;10205;49.678;6.560;2022-08-19T09:11:17;26.40;50.30
20091;DHT22;10205;49.678;6.560;2022-08-19T09:13:56;26.50;50.10
20091;DHT22;10205;49.678;6.560;2022-08-19T09:16:35;26.60;49.80
20091;DHT22;10205;49.678;6.560;2022-08-19T09:19:07;26.70;49.70
20091;DHT22;10205;49.678;6.560;2022-08-19T09:21:36;26.80;49.60
20091;DHT22;10205;49.678;6.560;2022-08-19T09:24:05;26.90;49.40
20091;DHT22;10205;49.678;6.560;2022-08-19T09:26:33;26.90;49.20
20091;DHT22;10205;49.678;6.560;2022-08-19T09:29:00;27.00;49.50
20091;DHT22;10205;49.678;6.560;2022-08-19T09:31:30;27.10;49.20
20091;DHT22;10205;49.678;6.560;2022-08-19T09:33:59;27.20;49.00
20091;DHT22;10205;49.678;6.560;2022-08-19T09:36:30;27.30;48.50
20091;DHT22;10205;49.678;6.560;2022-08-19T09:38:59;27.30;48.60
20091;DHT22;10205;49.678;6.560;2022-08-19T09:41:26;27.40;48.60
20091;DHT22;10205;49.678;6.560;2022-08-19T09:43:55;27.50;48.50
20091;DHT22;10205;49.678;6.560;2022-08-19T09:46:25;27.50;48.30
20091;DHT22;10205;49.678;6.560;2022-08-19T09:48:54;27.60;47.80
20091;DHT22;10205;49.678;6.560;2022-08-19T09:51:27;27.70;47.80
20091;DHT22;10205;49.678;6.560;2022-08-19T09:53:58;27.70;47.80
20091;DHT22;10205;49.678;6.560;2022-08-19T09:56:27;27.80;47.60
20091;DHT22;10205;49.678;6.560;2022-08-19T09:58:57;27.90;47.50
20091;DHT22;10205;49.678;6.560;2022-08-19T10:01:27;28.00;47.00
20091;DHT22;10205;49.678;6.560;2022-08-19T10:03:57;28.10;46.70
20091;DHT22;10205;49.678;6.560;2022-08-19T10:06:28;28.10;45.80
20091;DHT22;10205;49.678;6.560;2022-08-19T10:08:58;28.20;45.90
20091;DHT22;10205;49.678;6.560;2022-08-19T10:11:26;28.30;45.70
20091;DHT22;10205;49.678;6.560;2022-08-19T10:13:54;28.40;45.20
20091;DHT22;10205;49.678;6.560;2022-08-19T10:16:23;28.40;45.30
20091;DHT22;10205;49.678;6.560;2022-08-19T10:18:51;28.50;44.90
20091;DHT22;10205;49.678;6.560;2022-08-19T10:21:24;28.60;44.90
20091;DHT22;10205;49.678;6.560;2022-08-19T10:23:56;28.60;44.60
20091;DHT22;10205;49.678;6.560;2022-08-19T10:26:29;28.70;44.50
20091;DHT22;10205;49.678;6.560;2022-08-19T10:28:57;28.70;44.40
20091;DHT22;10205;49.678;6.560;2022-08-19T10:31:31;28.80;44.30
20091;DHT22;10205;49.678;6.560;2022-08-19T10:34:01;28.90;43.70
20091;DHT22;10205;49.678;6.560;2022-08-19T10:36:33;28.90;43.60
20091;DHT22;10205;49.678;6.560;2022-08-19T10:39:07;29.00;43.50
20091;DHT22;10205;49.678;6.560;2022-08-19T10:41:38;29.00;43.30
20091;DHT22;10205;49.678;6.560;2022-08-19T10:44:11;29.00;42.30
20091;DHT22;10205;49.678;6.560;2022-08-19T10:46:42;29.10;43.30
20091;DHT22;10205;49.678;6.560;2022-08-19T10:49:12;29.10;42.90
20091;DHT22;10205;49.678;6.560;2022-08-19T10:51:41;29.20;42.90
20091;DHT22;10205;49.678;6.560;2022-08-19T10:54:26;29.30;42.40
20091;DHT22;10205;49.678;6.560;2022-08-19T10:57:20;29.30;42.60
20091;DHT22;10205;49.678;6.560;2022-08-19T10:59:49;29.40;42.60
20091;DHT22;10205;49.678;6.560;2022-08-19T11:02:16;29.50;42.30
20091;DHT22;10205;49.678;6.560;2022-08-19T11:04:43;29.50;42.00
20091;DHT22;10205;49.678;6.560;2022-08-19T11:07:12;29.50;40.80
20091;DHT22;10205;49.678;6.560;2022-08-19T11:09:41;29.70;40.30
20091;DHT22;10205;49.678;6.560;2022-08-19T11:12:12;29.70;41.20
20091;DHT22;10205;49.678;6.560;2022-08-19T11:14:40;29.70;40.80
20091;DHT22;10205;49.678;6.560;2022-08-19T11:17:08;29.80;41.10
20091;DHT22;10205;49.678;6.560;2022-08-19T11:19:36;29.90;40.90
20091;DHT22;10205;49.678;6.560;2022-08-19T11:22:04;29.90;40.80
20091;DHT22;10205;49.678;6.560;2022-08-19T11:24:36;30.00;40.70
20091;DHT22;10205;49.678;6.560;2022-08-19T11:27:05;30.00;40.10
20091;DHT22;10205;49.678;6.560;2022-08-19T11:29:35;30.10;39.80
20091;DHT22;10205;49.678;6.560;2022-08-19T11:32:06;30.20;40.80
20091;DHT22;10205;49.678;6.560;2022-08-19T11:34:35;30.20;40.10
20091;DHT22;10205;49.678;6.560;2022-08-19T11:37:04;30.30;40.20
20091;DHT22;10205;49.678;6.560;2022-08-19T11:39:34;30.30;39.90
20091;DHT22;10205;49.678;6.560;2022-08-19T11:42:05;30.40;39.30
20091;DHT22;10205;49.678;6.560;2022-08-19T11:44:53;30.50;39.10
20091;DHT22;10205;49.678;6.560;2022-08-19T11:47:20;30.60;39.00
20091;DHT22;10205;49.678;6.560;2022-08-19T11:49:48;30.60;38.20
20091;DHT22;10205;49.678;6.560;2022-08-19T11:52:16;30.60;38.20
20091;DHT22;10205;49.678;6.560;2022-08-19T11:54:45;30.70;38.30
20091;DHT22;10205;49.678;6.560;2022-08-19T11:57:12;30.70;38.10
20091;DHT22;10205;49.678;6.560;2022-08-19T11:59:42;30.80;38.00
20091;DHT22;10205;49.678;6.560;2022-08-19T12:02:13;30.80;38.00
20091;DHT22;10205;49.678;6.560;2022-08-19T12:04:41;30.90;37.80
20091;DHT22;10205;49.678;6.560;2022-08-19T12:07:08;30.90;37.40
20091;DHT22;10205;49.678;6.560;2022-08-19T12:09:35;30.90;37.80
20091;DHT22;10205;49.678;6.560;2022-08-19T12:12:07;31.00;37.80
20091;DHT22;10205;49.678;6.560;2022-08-19T12:14:35;31.10;37.50
20091;DHT22;10205;49.678;6.560;2022-08-19T12:17:02;31.10;36.70
20091;DHT22;10205;49.678;6.560;2022-08-19T12:19:33;31.20;37.00
20091;DHT22;10205;49.678;6.560;2022-08-19T12:22:01;31.20;36.30
20091;DHT22;10205;49.678;6.560;2022-08-19T12:24:30;31.30;36.70
20091;DHT22;10205;49.678;6.560;2022-08-19T12:26:58;31.30;36.20
20091;DHT22;10205;49.678;6.560;2022-08-19T12:29:28;31.30;35.70
20091;DHT22;10205;49.678;6.560;2022-08-19T12:31:57;31.30;36.20
20091;DHT22;10205;49.678;6.560;2022-08-19T12:34:36;31.40;36.60
20091;DHT22;10205;49.678;6.560;2022-08-19T12:37:05;31.40;36.50
20091;DHT22;10205;49.678;6.560;2022-08-19T12:39:38;31.40;35.90
20091;DHT22;10205;49.678;6.560;2022-08-19T12:42:08;31.40;35.90
20091;DHT22;10205;49.678;6.560;2022-08-19T12:44:39;31.50;36.40
20091;DHT22;10205;49.678;6.560;2022-08-19T12:47:09;31.50;36.30
20091;DHT22;10205;49.678;6.560;2022-08-19T12:49:39;31.60;35.80
20091;DHT22;10205;49.678;6.560;2022-08-19T12:52:08;31.60;35.50
20091;DHT22;10205;49.678;6.560;2022-08-19T12:54:36;31.60;35.30
20091;DHT22;10205;49.678;6.560;2022-08-19T12:57:07;31.70;35.90
20091;DHT22;10205;49.678;6.560;2022-08-19T12:59:38;31.80;35.90
20091;DHT22;10205;49.678;6.560;2022-08-19T13:02:06;31.80;35.90
20091;DHT22;10205;49.678;6.560;2022-08-19T13:04:34;31.80;35.90
20091;DHT22;10205;49.678;6.560;2022-08-19T13:07:06;31.80;35.60
20091;DHT22;10205;49.678;6.560;2022-08-19T13:09:34;31.80;35.60
20091;DHT22;10205;49.678;6.560;2022-08-19T13:12:02;31.80;35.10
20091;DHT22;10205;49.678;6.560;2022-08-19T13:14:34;31.80;35.00
20091;DHT22;10205;49.678;6.560;2022-08-19T13:17:02;31.80;35.20
20091;DHT22;10205;49.678;6.560;2022-08-19T13:19:29;31.80;34.70
20091;DHT22;10205;49.678;6.560;2022-08-19T13:21:57;31.80;34.50
20091;DHT22;10205;49.678;6.560;2022-08-19T13:24:24;31.90;34.30
20091;DHT22;10205;49.678;6.560;2022-08-19T13:26:51;31.90;34.20
20091;DHT22;10205;49.678;6.560;2022-08-19T13:29:19;31.90;33.90
20091;DHT22;10205;49.678;6.560;2022-08-19T13:32:05;31.90;33.90
20091;DHT22;10205;49.678;6.560;2022-08-19T13:34:49;31.90;33.80
20091;DHT22;10205;49.678;6.560;2022-08-19T13:37:16;31.90;33.90
20091;DHT22;10205;49.678;6.560;2022-08-19T13:40:06;32.00;33.20
20091;DHT22;10205;49.678;6.560;2022-08-19T13:42:38;32.00;32.80
20091;DHT22;10205;49.678;6.560;2022-08-19T13:45:06;32.00;32.40
20091;DHT22;10205;49.678;6.560;2022-08-19T13:47:36;32.10;31.80
20091;DHT22;10205;49.678;6.560;2022-08-19T13:50:08;32.20;31.80
20091;DHT22;10205;49.678;6.560;2022-08-19T13:52:37;32.20;31.40
20091;DHT22;10205;49.678;6.560;2022-08-19T13:55:05;32.20;32.20
20091;DHT22;10205;49.678;6.560;2022-08-19T13:57:34;32.20;32.20
20091;DHT22;10205;49.678;6.560;2022-08-19T14:00:05;32.30;32.10
20091;DHT22;10205;49.678;6.560;2022-08-19T14:02:36;32.30;32.40
20091;DHT22;10205;49.678;6.560;2022-08-19T14:05:05;32.30;32.50
20091;DHT22;10205;49.678;6.560;2022-08-19T14:07:34;32.30;32.40
20091;DHT22;10205;49.678;6.560;2022-08-19T14:10:02;32.30;32.80
20091;DHT22;10205;49.678;6.560;2022-08-19T14:12:29;32.30;33.00
20091;DHT22;10205;49.678;6.560;2022-08-19T14:14:57;32.40;33.20
20091;DHT22;10205;49.678;6.560;2022-08-19T14:17:28;32.40;33.00
20091;DHT22;10205;49.678;6.560;2022-08-19T14:19:58;32.40;33.30
20091;DHT22;10205;49.678;6.560;2022-08-19T14:22:32;32.40;33.50
20091;DHT22;10205;49.678;6.560;2022-08-19T14:25:00;32.40;33.60
20091;DHT22;10205;49.678;6.560;2022-08-19T14:27:27;32.40;33.60
20091;DHT22;10205;49.678;6.560;2022-08-19T14:29:54;32.40;34.30
20091;DHT22;10205;49.678;6.560;2022-08-19T14:32:21;32.50;33.80
20091;DHT22;10205;49.678;6.560;2022-08-19T14:34:52;32.40;33.80
20091;DHT22;10205;49.678;6.560;2022-08-19T14:37:21;32.50;33.80
20091;DHT22;10205;49.678;6.560;2022-08-19T14:39:48;32.50;33.60
20091;DHT22;10205;49.678;6.560;2022-08-19T14:42:16;32.50;33.50
20091;DHT22;10205;49.678;6.560;2022-08-19T14:44:43;32.50;33.50
20091;DHT22;10205;49.678;6.560;2022-08-19T14:47:10;32.40;33.60
20091;DHT22;10205;49.678;6.560;2022-08-19T14:49:38;32.40;33.30
20091;DHT22;10205;49.678;6.560;2022-08-19T14:52:06;32.40;33.60
20091;DHT22;10205;49.678;6.560;2022-08-19T14:54:34;32.40;34.10
20091;DHT22;10205;49.678;6.560;2022-08-19T14:57:02;32.40;33.60
20091;DHT22;10205;49.678;6.560;2022-08-19T14:59:29;32.40;34.10
20091;DHT22;10205;49.678;6.560;2022-08-19T15:01:56;32.40;33.80
20091;DHT22;10205;49.678;6.560;2022-08-19T15:04:25;32.40;34.10
20091;DHT22;10205;49.678;6.560;2022-08-19T15:06:52;32.40;34.00
20091;DHT22;10205;49.678;6.560;2022-08-19T15:09:19;32.40;34.00
20091;DHT22;10205;49.678;6.560;2022-08-19T15:11:48;32.40;34.20
20091;DHT22;10205;49.678;6.560;2022-08-19T15:14:15;32.40;34.30
20091;DHT22;10205;49.678;6.560;2022-08-19T15:16:43;32.40;34.30
20091;DHT22;10205;49.678;6.560;2022-08-19T15:19:10;32.40;34.20
20091;DHT22;10205;49.678;6.560;2022-08-19T15:21:37;32.40;34.30
20091;DHT22;10205;49.678;6.560;2022-08-19T15:24:05;32.40;34.30
20091;DHT22;10205;49.678;6.560;2022-08-19T15:26:32;32.50;34.40
20091;DHT22;10205;49.678;6.560;2022-08-19T15:29:02;32.50;34.50
20091;DHT22;10205;49.678;6.560;2022-08-19T15:31:30;32.50;34.80
20091;DHT22;10205;49.678;6.560;2022-08-19T15:34:02;32.50;34.90
20091;DHT22;10205;49.678;6.560;2022-08-19T15:36:31;32.50;34.90
20091;DHT22;10205;49.678;6.560;2022-08-19T15:39:01;32.50;34.90
20091;DHT22;10205;49.678;6.560;2022-08-19T15:41:29;32.40;34.90
20091;DHT22;10205;49.678;6.560;2022-08-19T15:43:58;32.40;35.00
20091;DHT22;10205;49.678;6.560;2022-08-19T15:46:31;32.40;35.10
20091;DHT22;10205;49.678;6.560;2022-08-19T15:49:00;32.40;35.10